createdAt,value
2022-09-03T03:58:44.542Z,0.01
2022-09-03T04:06:28.039Z,0.02
2022-09-03T04:08:55.103Z,0.03
2022-09-03T04:11:08.109Z,0.04
2022-09-03T04:13:06.878Z,0.06
2022-09-03T04:15:54.246Z,0.13
2022-09-03T04:18:27.358Z,0.21
2022-09-03T04:20:46.473Z,0.3
2022-09-03T04:22:52.029Z,0.43
2022-09-03T04:25:44.758Z,0.63
2022-09-03T04:28:25.201Z,0.82
2022-09-03T04:30:49.467Z,0.95
2022-09-03T04:33:00.411Z,1.22
2022-09-03T04:36:00.212Z,1.73
2022-09-03T04:38:45.793Z,2.48
2022-09-03T04:41:17.074Z,3.41
2022-09-03T04:43:34.168Z,5
2022-09-03T04:45:37.323Z,6.1
2022-09-03T04:48:28.974Z,8.25
2022-09-03T04:51:06.438Z,10.12
2022-09-03T04:53:29.919Z,11.91
2022-09-03T04:55:39.155Z,14.1
2022-09-03T04:58:36.987Z,16.91
2022-09-03T05:01:21.068Z,17.13
2022-09-03T05:03:50.466Z,19.9
2022-09-03T05:06:05.796Z,25.82
2022-09-03T05:08:07.191Z,30.79
2022-09-03T05:10:57.238Z,33.99
2022-09-03T05:13:33.317Z,27.38
2022-09-03T05:15:54.663Z,22.57
2022-09-03T05:18:02.331Z,24.49
2022-09-03T05:20:58.718Z,28.28
2022-09-03T05:23:40.472Z,33.67
2022-09-03T05:26:08.416Z,40.53
2022-09-03T05:28:22.164Z,45.66
2022-09-03T05:30:21.609Z,54.1
2022-09-03T05:33:09.955Z,61.8
2022-09-03T05:35:44.019Z,69.1
2022-09-03T05:38:03.861Z,83.52
2022-09-03T05:40:09.656Z,83
2022-09-03T05:43:07.920Z,85.28
2022-09-03T05:45:44.244Z,85.8
2022-09-03T05:48:10.174Z,92.16
2022-09-03T05:50:22.090Z,112.28
2022-09-03T05:52:19.819Z,126.52
2022-09-03T05:55:06.129Z,145.6
2022-09-03T05:57:38.460Z,145.12
2022-09-03T05:59:56.611Z,134.72
2022-09-03T06:02:00.714Z,120.04
2022-09-03T06:04:53.207Z,109.68
2022-09-03T06:07:31.721Z,91.72
2022-09-03T06:09:56.032Z,83.8
2022-09-03T06:15:05.132Z,83.68
2022-09-03T06:17:49.667Z,88.92
2022-09-03T06:20:20.030Z,85.16
2022-09-03T06:22:36.434Z,81.64
2022-09-03T06:24:38.739Z,82.88
2022-09-03T06:27:29.469Z,85.44
2022-09-03T06:30:06.214Z,79.7
2022-09-03T06:32:28.794Z,77.22
2022-09-03T06:34:37.069Z,79.84
2022-09-03T06:37:34.361Z,74.82
2022-09-03T06:40:17.500Z,75.18
2022-09-03T06:42:46.031Z,80.8
2022-09-03T06:45:00.277Z,91
2022-09-03T06:47:00.686Z,103.4
2022-09-03T06:49:49.754Z,119.4
2022-09-03T06:52:24.551Z,122.68
2022-09-03T06:54:45.393Z,139.8
2022-09-03T06:56:52.008Z,141.16
2022-09-03T06:59:47.277Z,142.44
2022-09-03T07:02:28.496Z,153.4
2022-09-03T07:04:55.406Z,154.32
2022-09-03T07:07:08.159Z,145.88
2022-09-03T07:09:06.797Z,137.44
2022-09-03T07:11:54.127Z,127.72
2022-09-03T07:14:27.290Z,136.04
2022-09-03T07:16:46.461Z,150.2
2022-09-03T07:18:51.090Z,155.2
2022-09-03T07:21:48.271Z,147.36
2022-09-03T07:24:23.771Z,160.4
2022-09-03T07:26:49.143Z,176.7
2022-09-03T07:28:59.945Z,187
2022-09-03T07:31:59.558Z,190.6
2022-09-03T07:34:45.121Z,195.7
2022-09-03T07:37:16.462Z,190
2022-09-03T07:39:33.638Z,180
2022-09-03T07:41:36.734Z,178.4
2022-09-03T07:44:28.530Z,174.5
2022-09-03T07:47:06.045Z,170
2022-09-03T07:49:29.350Z,156.04
2022-09-03T07:51:38.674Z,158.04
2022-09-03T07:54:36.625Z,158.52
2022-09-03T07:57:20.288Z,162.76
2022-09-03T07:59:50.019Z,170.8
2022-09-03T08:02:05.521Z,183.1
2022-09-03T08:04:07.089Z,191.2
2022-09-03T08:06:56.908Z,203.5
2022-09-03T08:09:32.793Z,206
2022-09-03T08:11:54.431Z,208.5
2022-09-03T08:14:02.052Z,203.3
2022-09-03T08:16:58.212Z,194.7
2022-09-03T08:19:40.166Z,187.3
2022-09-03T08:22:07.793Z,185.5
2022-09-03T08:24:21.517Z,188.8
2022-09-03T08:26:20.971Z,187.9
2022-09-03T08:29:09.100Z,195.4
2022-09-03T08:31:43.237Z,200.3
2022-09-03T08:34:03.060Z,204.4
2022-09-03T08:36:08.717Z,198.1
2022-09-03T08:39:03.522Z,204
2022-09-03T08:41:43.608Z,225.1
2022-09-03T08:44:09.667Z,254.9
2022-09-03T08:46:21.718Z,290.4
2022-09-03T08:48:22.726Z,326
2022-09-03T08:51:05.881Z,380.1
2022-09-03T08:53:38.049Z,410.8
2022-09-03T08:55:56.246Z,430.2
2022-09-03T08:58:00.183Z,447.6
2022-09-03T09:00:52.768Z,471
2022-09-03T09:03:31.298Z,485.7
2022-09-03T09:05:55.570Z,511.8
2022-09-03T09:08:05.650Z,483.8
2022-09-03T09:11:04.620Z,469.4
2022-09-03T09:13:49.349Z,510.4
2022-09-03T09:16:19.863Z,630.8
2022-09-03T09:18:36.101Z,813.1
2022-09-03T09:20:38.240Z,871.6
2022-09-03T09:23:29.107Z,783.3
2022-09-03T09:26:05.725Z,456.1
2022-09-03T09:28:28.265Z,457.1
2022-09-03T09:30:36.605Z,474.2
2022-09-03T09:33:34.624Z,505.2
2022-09-03T09:36:16.519Z,546.4
2022-09-03T09:38:45.229Z,549.9
2022-09-03T09:40:59.635Z,487.3
2022-09-03T09:43:00.105Z,487.6
2022-09-03T09:45:49.166Z,489.7
2022-09-03T09:48:24.080Z,478.2
2022-09-03T09:50:44.519Z,453.4
2022-09-03T09:52:51.124Z,426.8
2022-09-03T09:55:46.338Z,379
2022-09-03T09:58:27.461Z,318.5
2022-09-03T10:00:54.287Z,241.7
2022-09-03T10:03:07.100Z,194.4
2022-09-03T10:05:05.551Z,173.2
2022-09-03T10:07:52.943Z,189.5
2022-09-03T10:10:26.104Z,200
2022-09-03T10:12:45.043Z,207.2
2022-09-03T10:14:49.944Z,252.1
2022-09-03T10:17:43.468Z,304.2
2022-09-03T10:20:22.767Z,307.2
2022-09-03T10:22:56.218Z,327.6
2022-09-03T10:24:58.979Z,388.9
2022-09-03T10:27:59.851Z,486.4
2022-09-03T10:30:44.246Z,587.3
2022-09-03T10:33:15.694Z,809.6
2022-09-03T10:35:32.892Z,971.5
2022-09-03T10:37:35.849Z,897.2
2022-09-03T10:40:27.694Z,651.2
2022-09-03T10:43:05.262Z,605.9
2022-09-03T10:45:28.580Z,591.8
2022-09-03T10:47:37.908Z,591.6
2022-09-03T10:50:35.883Z,632.6
2022-09-03T10:53:19.548Z,669.4
2022-09-03T10:55:48.941Z,715.2
2022-09-03T10:58:04.369Z,662.7
2022-09-03T11:00:05.609Z,700.8
2022-09-03T11:02:55.498Z,734
2022-09-03T11:05:31.280Z,743.6
2022-09-03T11:07:52.863Z,768.6
2022-09-03T11:10:00.194Z,727
2022-09-03T11:12:56.340Z,680.3
2022-09-03T11:15:38.363Z,686.4
2022-09-03T11:18:05.950Z,657.2
2022-09-03T11:20:19.424Z,624.9
2022-09-03T11:22:20.682Z,607.2
2022-09-03T11:25:06.949Z,554.4
2022-09-03T11:27:40.779Z,568.8
2022-09-03T11:30:00.612Z,682.5
2022-09-03T11:32:06.231Z,1347.8
2022-09-03T11:35:00.426Z,1149.4
2022-09-03T11:37:40.561Z,775.3
2022-09-03T11:40:06.580Z,772.8
2022-09-03T11:42:18.208Z,1014
2022-09-03T11:44:15.940Z,920.9
2022-09-03T11:47:02.235Z,1261.1
2022-09-03T11:49:34.345Z,1329.2
2022-09-03T11:51:52.134Z,1303.6
2022-09-03T11:53:56.038Z,1160.3
2022-09-03T11:56:48.495Z,1239.3
2022-09-03T11:59:26.640Z,1072.3
2022-09-03T12:01:50.749Z,1020.4
2022-09-03T12:04:00.644Z,1016.9
2022-09-03T12:06:59.153Z,1374.7
2022-09-03T12:09:43.788Z,1325.4
2022-09-03T12:12:13.970Z,1268.8
2022-09-03T12:14:30.036Z,1267.5
2022-09-03T12:16:32.044Z,1264
2022-09-03T12:19:22.635Z,1216.6
2022-09-03T12:21:58.936Z,1160.6
2022-09-03T12:24:21.100Z,1095
2022-09-03T12:26:29.288Z,1085.7
2022-09-03T12:29:27.555Z,1064.6
2022-09-03T12:32:08.523Z,1195.5
2022-09-03T12:34:36.961Z,1117.7
2022-09-03T12:36:51.239Z,452.9
2022-09-03T12:39:10.767Z,451.3
2022-09-03T12:41:40.197Z,461.7
2022-09-03T12:44:14.825Z,640.6
2022-09-03T12:46:35.259Z,509.4
2022-09-03T12:48:43.958Z,534
2022-09-03T12:51:54.073Z,501.2
2022-09-03T12:54:17.342Z,498.8
2022-09-03T12:56:43.859Z,476
2022-09-03T12:58:56.428Z,493.9
2022-09-03T13:00:54.848Z,545.1
2022-09-03T13:03:41.690Z,541.4
2022-09-03T13:06:14.615Z,749.1
2022-09-03T13:08:33.339Z,440.1
2022-09-03T13:10:37.901Z,498.7
2022-09-03T13:13:31.188Z,342.4
2022-09-03T13:16:10.307Z,342.7
2022-09-03T13:18:35.069Z,449.2
2022-09-03T13:20:45.948Z,376
2022-09-03T13:23:45.423Z,272.5
2022-09-03T13:26:30.661Z,421.6
2022-09-03T13:29:01.656Z,499.2
2022-09-03T13:31:18.722Z,391.3
2022-09-03T13:33:21.481Z,347.5
2022-09-03T13:36:12.818Z,389.2
2022-09-03T13:38:50.231Z,414.4
2022-09-03T13:41:13.759Z,470.4
2022-09-03T13:43:22.478Z,442.8
2022-09-03T13:46:20.117Z,414.2
2022-09-03T13:49:03.851Z,541.4
2022-09-03T13:51:32.836Z,538.4
2022-09-03T13:53:47.903Z,468.1
2022-09-03T13:55:48.978Z,502.8
2022-09-03T13:58:38.566Z,605.6
2022-09-03T14:01:13.841Z,610.2
2022-09-03T14:03:35.209Z,690.5
2022-09-03T14:05:42.334Z,732.4
2022-09-03T14:08:38.804Z,790.7
2022-09-03T14:11:19.751Z,899.8
2022-09-03T14:13:47.380Z,826.2
2022-09-03T14:16:00.764Z,398.5
2022-09-03T14:18:00.120Z,422.8
2022-09-03T14:20:48.039Z,416.6
2022-09-03T14:23:02.554Z,439.3
2022-09-03T14:25:02.820Z,482.5
2022-09-03T14:27:51.658Z,434.5
2022-09-03T14:30:26.532Z,399.6
2022-09-03T14:32:47.085Z,377.6
2022-09-03T14:34:53.478Z,393.7
2022-09-03T14:37:48.657Z,304.8
2022-09-03T14:40:29.761Z,309.5
2022-09-03T14:42:56.534Z,290.3
2022-09-03T14:45:09.394Z,257.8
2022-09-03T14:47:08.005Z,251.2
2022-09-03T14:49:55.171Z,265
2022-09-03T14:52:28.027Z,270.4
2022-09-03T14:54:46.976Z,292.2
2022-09-03T14:56:51.737Z,335.3
2022-09-03T14:59:45.104Z,496.6
2022-09-03T15:02:24.470Z,648
2022-09-03T15:04:49.567Z,654.7
2022-09-03T15:07:00.499Z,604.9
2022-09-03T15:10:00.341Z,507.2
2022-09-03T15:12:45.958Z,508.9
2022-09-03T15:15:17.328Z,495
2022-09-03T15:17:34.492Z,416.1
2022-09-03T15:19:37.708Z,398.5
2022-09-03T15:22:29.386Z,365.9
2022-09-03T15:25:06.767Z,501.9
2022-09-03T15:27:30.226Z,409.4
2022-09-03T15:29:39.434Z,368.1
2022-09-03T15:32:37.265Z,301.7
2022-09-03T15:35:21.042Z,250.4
2022-09-03T15:37:50.632Z,253.4
2022-09-03T15:40:06.009Z,240.8
2022-09-03T15:42:07.332Z,251.9
2022-09-03T15:44:57.155Z,259.6
2022-09-03T15:47:44.775Z,219.2
2022-09-03T15:49:54.320Z,230.3
2022-09-03T15:52:01.800Z,267.8
2022-09-03T15:54:57.943Z,307.9
2022-09-03T15:57:39.757Z,238.8
2022-09-03T16:00:07.547Z,230.8
2022-09-03T16:02:21.189Z,206.6
2022-09-03T16:04:20.587Z,192.9
2022-09-03T16:07:08.774Z,174.8
2022-09-03T16:09:44.787Z,169.6
2022-09-03T16:12:02.544Z,155.16
2022-09-03T16:14:08.313Z,166.2
2022-09-03T16:17:02.641Z,207.2
2022-09-03T16:19:42.760Z,218.3
2022-09-03T16:22:08.621Z,210.3
2022-09-03T16:24:20.528Z,200.8
2022-09-03T16:26:18.170Z,187.4
2022-09-03T16:29:04.431Z,167.6
2022-09-03T16:31:36.907Z,166.5
2022-09-03T16:33:54.873Z,177.7
2022-09-03T16:35:58.754Z,168.2
2022-09-03T16:38:51.325Z,114.28
2022-09-03T16:41:29.739Z,85.64
2022-09-03T16:43:53.889Z,72.4
2022-09-03T16:46:04.141Z,67.42
2022-09-03T16:49:02.828Z,54.66
2022-09-03T16:51:47.424Z,44.5
2022-09-03T16:54:17.837Z,39.08
2022-09-03T16:56:34.281Z,36.34
2022-09-03T16:58:36.449Z,32.98
2022-09-03T17:01:27.274Z,29.15
2022-09-03T17:04:04.099Z,26.48
2022-09-03T17:06:26.359Z,25.13
2022-09-03T17:08:34.630Z,24.2
2022-09-03T17:11:31.800Z,22.25
2022-09-03T17:14:14.607Z,19.86
2022-09-03T17:16:43.181Z,22.44
2022-09-03T17:18:57.560Z,21.06
2022-09-03T17:20:57.977Z,21.2
2022-09-03T17:23:46.937Z,23.06
2022-09-03T17:26:21.704Z,24.9
2022-09-03T17:28:42.450Z,25.08
2022-09-03T17:30:49.050Z,26.13
2022-09-03T17:33:44.225Z,26.72
2022-09-03T17:36:25.379Z,30.63
2022-09-03T17:38:52.279Z,29.7
2022-09-03T17:41:05.010Z,27.25
2022-09-03T17:43:03.672Z,25.09
2022-09-03T17:45:51.018Z,22.42
2022-09-03T17:48:24.212Z,20.06
2022-09-03T17:50:43.073Z,17.15
2022-09-03T17:52:47.952Z,14.64
2022-09-03T17:55:41.363Z,11.8
2022-09-03T17:58:20.543Z,9.52
2022-09-03T18:00:45.694Z,7.64
2022-09-03T18:02:56.665Z,6.39
2022-09-03T18:05:56.091Z,4.82
2022-09-03T18:08:41.606Z,4.07
2022-09-03T18:11:12.910Z,3.26
2022-09-03T18:13:29.951Z,2.38
2022-09-03T18:15:32.981Z,1.79
2022-09-03T18:18:24.568Z,1.11
2022-09-03T18:21:21.376Z,0.74
2022-09-03T18:23:24.911Z,0.52
2022-09-03T18:25:34.160Z,0.36
2022-09-03T18:28:31.474Z,0.22
2022-09-03T18:31:14.869Z,0.14
2022-09-03T18:33:44.246Z,0.09
2022-09-03T18:35:59.422Z,0.06
2022-09-03T18:38:00.364Z,0.04
2022-09-03T18:40:50.088Z,0.03
2022-09-03T18:43:25.764Z,0.02
2022-09-03T18:46:22.614Z,0.01
2022-09-03T19:00:11.846Z,0
2022-09-03T19:02:59.707Z,0.01
2022-09-03T19:05:33.442Z,0
2022-09-03T19:20:09.853Z,0.01
2022-09-03T19:24:53.357Z,0
2022-09-03T19:41:50.748Z,0.01
2022-09-03T19:44:49.327Z,0
2022-09-03T20:12:26.332Z,0.02
2022-09-03T20:14:40.648Z,0
2022-09-03T20:26:31.266Z,0.01
2022-09-03T20:29:26.247Z,0
2022-09-03T20:34:33.760Z,0.01
2022-09-03T20:36:48.838Z,0
